• Join FlightAware (Why Join?)
  • Login
  • US Flag 
08:39PM EDT


 

Airport Tracker/Info


-or-


 

Live Flight TrackerFlight Track Log ✈ AVN20 ✈ 20-Sep-2013 ✈ NVVV / VLI - YBBN / BNE

Flight Track Log - Related Links

Times and Time Zones

All times are in EDT time to prevent confusion due to time zone crossing. See the AVN20 flight status page for this flight to view local times or setup timezone preferences in your user account.

Time Position Orientation Groundspeed Altitude Reporting Facility
EDT Latitude Longitude Course Direction KTS MPH feet Rate Location/Type
01:33AM -17.9084 168.0307 233° Southwest  Level FlightAware Approximate
01:34AM -17.9606 167.9583 233° Southwest  Level FlightAware Approximate
01:35AM -18.0128 167.8859 233° Southwest  Level FlightAware Approximate
01:36AM -18.0649 167.8135 233° Southwest  Level FlightAware Approximate
01:37AM -18.1170 167.7410 233° Southwest  Level FlightAware Approximate
01:38AM -18.1691 167.6684 233° Southwest  Level FlightAware Approximate
01:39AM -18.2212 167.5958 233° Southwest  Level FlightAware Approximate
01:40AM -18.2732 167.5232 233° Southwest  Level FlightAware Approximate
01:41AM -18.3252 167.4505 233° Southwest  Level FlightAware Approximate
01:42AM -18.3772 167.3778 233° Southwest  Level FlightAware Approximate
01:43AM -18.4292 167.3050 233° Southwest  Level FlightAware Approximate
01:44AM -18.4811 167.2322 233° Southwest  Level FlightAware Approximate
01:45AM -18.5330 167.1594 233° Southwest  Level FlightAware Approximate
01:46AM -18.5849 167.0865 233° Southwest  Level FlightAware Approximate
01:47AM -18.6367 167.0135 233° Southwest  Level FlightAware Approximate
01:48AM -18.6885 166.9406 233° Southwest  Level FlightAware Approximate
01:49AM -18.7403 166.8675 233° Southwest  Level FlightAware Approximate
01:50AM -18.7921 166.7944 233° Southwest  Level FlightAware Approximate
01:51AM -18.8438 166.7213 233° Southwest  Level FlightAware Approximate
01:52AM -18.8955 166.6482 233° Southwest  Level FlightAware Approximate
01:53AM -18.9472 166.5750 233° Southwest  Level FlightAware Approximate
01:54AM -18.9988 166.5017 233° Southwest  Level FlightAware Approximate
01:55AM -19.0504 166.4284 233° Southwest  Level FlightAware Approximate
01:56AM -19.1020 166.3551 233° Southwest  Level FlightAware Approximate
01:57AM -19.1536 166.2817 233° Southwest  Level FlightAware Approximate
01:58AM -19.2051 166.2082 233° Southwest  Level FlightAware Approximate
01:59AM -19.2566 166.1347 233° Southwest  Level FlightAware Approximate
02:00AM -19.3081 166.0612 233° Southwest  Level FlightAware Approximate
02:01AM -19.3595 165.9876 233° Southwest  Level FlightAware Approximate
02:02AM -19.4109 165.9140 233° Southwest  Level FlightAware Approximate
02:03AM -19.4623 165.8403 234° Southwest  Level FlightAware Approximate
02:04AM -19.5137 165.7666 234° Southwest  Level FlightAware Approximate
02:05AM -19.5650 165.6929 234° Southwest  Level FlightAware Approximate
02:06AM -19.6163 165.6190 234° Southwest  Level FlightAware Approximate
02:07AM -19.6675 165.5452 234° Southwest  Level FlightAware Approximate
02:08AM -19.7188 165.4713 234° Southwest  Level FlightAware Approximate
02:09AM -19.7700 165.3973 234° Southwest  Level FlightAware Approximate
02:10AM -19.8211 165.3233 234° Southwest  Level FlightAware Approximate
02:11AM -19.8723 165.2493 234° Southwest  Level FlightAware Approximate
02:12AM -19.9234 165.1752 234° Southwest  Level FlightAware Approximate
02:13AM -19.9746 165.1012 236° Southwest  Level Estimated
02:14AM -20.0257 165.0270 234° Southwest  Level FlightAware Approximate
02:15AM -20.0768 164.9529 234° Southwest  Level FlightAware Approximate
02:16AM -20.1278 164.8786 234° Southwest  Level FlightAware Approximate
02:17AM -20.1789 164.8043 234° Southwest  Level FlightAware Approximate
02:18AM -20.2299 164.7300 234° Southwest  Level FlightAware Approximate
02:19AM -20.2808 164.6556 234° Southwest  Level FlightAware Approximate
02:20AM -20.3318 164.5812 234° Southwest  Level FlightAware Approximate
02:20AM -22.3772 161.4998 235° Southwest 40,000  Level Aus ATC (Calculated)
02:22AM -22.4440 161.3967 235° Southwest  Level FlightAware Approximate
02:23AM -22.4817 161.3384 235° Southwest  Level FlightAware Approximate
02:23AM -22.6546 161.0684 235° Southwest 40,000  Level Aus ATC (Calculated)
02:25AM -22.7205 160.9659 235° Southwest  Level FlightAware Approximate
02:26AM -22.7581 160.9073 235° Southwest  Level FlightAware Approximate
02:27AM -22.7956 160.8487 235° Southwest  Level FlightAware Approximate
02:27AM -22.9936 160.5364 236° Southwest 40,000  Level Aus ATC (Calculated)
02:27AM -23.0339 160.4727 236° Southwest 40,000 -120 Level Aus ATC (Calculated)
02:29AM -23.0848 160.3927 235° Southwest  Level FlightAware Approximate
02:30AM -23.1220 160.3342 235° Southwest  Level FlightAware Approximate
02:31AM -23.1591 160.2756 235° Southwest  Level FlightAware Approximate
02:32AM -23.1962 160.2170 235° Southwest  Level FlightAware Approximate
02:33AM -23.2334 160.1583 235° Southwest  Level FlightAware Approximate
02:34AM -23.2704 160.0996 235° Southwest  Level FlightAware Approximate
02:35AM -23.3075 160.0409 235° Southwest  Level FlightAware Approximate
02:36AM -23.3445 159.9821 236° Southwest  Level FlightAware Approximate
02:37AM -23.3816 159.9234 236° Southwest  Level FlightAware Approximate
02:38AM -23.4186 159.8645 236° Southwest  Level FlightAware Approximate
02:39AM -23.4555 159.8057 236° Southwest  Level FlightAware Approximate
02:40AM -23.4925 159.7468 236° Southwest  Level FlightAware Approximate
02:41AM -23.5294 159.6879 236° Southwest  Level FlightAware Approximate
02:42AM -23.5664 159.6289 236° Southwest  Level FlightAware Approximate
02:43AM -23.6032 159.5700 236° Southwest  Level FlightAware Approximate
02:44AM -23.6401 159.5109 236° Southwest  Level FlightAware Approximate
02:45AM -23.6770 159.4519 236° Southwest  Level FlightAware Approximate
02:46AM -23.7138 159.3928 236° Southwest  Level FlightAware Approximate
02:47AM -23.7506 159.3337 236° Southwest  Level FlightAware Approximate
02:48AM -23.7874 159.2745 236° Southwest  Level FlightAware Approximate
02:49AM -23.8241 159.2154 236° Southwest  Level FlightAware Approximate
02:50AM -23.8608 159.1561 236° Southwest  Level FlightAware Approximate
02:51AM -23.8976 159.0969 236° Southwest  Level FlightAware Approximate
02:52AM -23.9342 159.0376 236° Southwest  Level FlightAware Approximate
02:53AM -23.9709 158.9783 236° Southwest  Level FlightAware Approximate
02:54AM -24.0075 158.9189 236° Southwest  Level FlightAware Approximate
02:55AM -24.0442 158.8595 236° Southwest  Level FlightAware Approximate
02:56AM -24.0808 158.8001 236° Southwest  Level FlightAware Approximate
02:57AM -24.1173 158.7407 236° Southwest  Level FlightAware Approximate
02:58AM -24.1539 158.6812 236° Southwest  Level FlightAware Approximate
02:59AM -24.1904 158.6217 236° Southwest  Level FlightAware Approximate
03:00AM -24.2269 158.5621 236° Southwest  Level FlightAware Approximate
03:01AM -24.2634 158.5025 236° Southwest  Level FlightAware Approximate
03:02AM -24.2999 158.4429 236° Southwest  Level FlightAware Approximate
03:03AM -24.3363 158.3832 236° Southwest  Level FlightAware Approximate
03:04AM -24.3727 158.3235 236° Southwest  Level FlightAware Approximate
03:04AM -25.7167 156.0668 57° Northeast 16,600  Level Aus ATC (Calculated)
03:05AM -25.6453 156.0668 North  Level FlightAware Approximate
03:05AM -25.8302 155.9432 55° Northeast 16,600  Level Aus ATC (Calculated)
03:07AM -25.7334 156.0486 44° Northeast  Level FlightAware Approximate
03:08AM -25.6824 156.1040 44° Northeast  Level FlightAware Approximate
03:09AM -25.7214 156.0377 224° Southwest  Level Estimated
03:10AM -25.7727 155.9826 224° Southwest  Level FlightAware Approximate
03:11AM -25.8239 155.9274 224° Southwest  Level FlightAware Approximate
03:12AM -25.8751 155.8722 224° Southwest  Level FlightAware Approximate
03:13AM -25.9263 155.8170 224° Southwest  Level FlightAware Approximate
03:14AM -25.9775 155.7616 224° Southwest  Level FlightAware Approximate
03:15AM -26.0286 155.7063 224° Southwest  Level FlightAware Approximate
03:15AM -26.7907 154.8828 50° Northeast 16,600  Level Aus ATC (Calculated)
03:16AM -26.0798 155.6509 224° Southwest  Level FlightAware Approximate
03:17AM -26.8555 154.8103 225° Southwest  Level FlightAware Approximate
03:18AM -26.9059 154.7537 225° Southwest  Level FlightAware Approximate
03:19AM -26.9564 154.6971 225° Southwest  Level FlightAware Approximate
03:20AM -27.0068 154.6405 225° Southwest  Level FlightAware Approximate
03:21AM -27.0572 154.5838 225° Southwest  Level FlightAware Approximate
03:22AM -27.1076 154.5270 225° Southwest  Level FlightAware Approximate
03:23AM -27.1579 154.4702 225° Southwest  Level FlightAware Approximate
03:24AM -27.2083 154.4134 225° Southwest  Level FlightAware Approximate
03:25AM -27.2586 154.3564 225° Southwest  Level FlightAware Approximate
03:26AM -27.3089 154.2995 225° Southwest  Level FlightAware Approximate
03:26AM -27.4856 153.8525 52° Northeast 6,400  Level Aus ATC (Calculated)
03:28AM -27.5086 153.9923 101° East  Level FlightAware Approximate
03:28AM -27.4513 153.6453 54° Northeast 6,400  Level Aus ATC (Calculated)
03:28AM -25.0376 157.1959 101° East 427 491 36,000 25,320 Climbing Aus ATC (RADAR)
03:29AM -25.0768 157.1437 230° Southwest 375 432 36,000  Level Aus ATC (RADAR)
03:30AM -25.1234 157.0726 234° Southwest 376 433 36,000  Level Aus ATC (RADAR)
03:30AM -25.1572 157.0149 237° Southwest 377 434 36,000  Level Aus ATC (RADAR)
03:31AM -25.2012 156.9413 237° Southwest 377 434 36,000  Level Aus ATC (RADAR)
03:31AM -25.2258 156.8998 237° Southwest 378 435 36,000  Level Aus ATC (RADAR)
03:32AM -25.2762 156.8173 236° Southwest 383 441 36,000  Level Aus ATC (RADAR)
03:33AM -25.3162 156.7510 236° Southwest 383 441 36,000  Level Aus ATC (RADAR)
03:33AM -25.3312 156.7261 236° Southwest 383 441 36,000  Level Aus ATC (RADAR)
03:34AM -25.3654 156.6670 237° Southwest 384 442 36,000  Level Aus ATC (RADAR)
03:34AM -25.4152 156.5831 237° Southwest 386 444 36,000  Level Aus ATC (RADAR)
03:35AM -25.4452 156.5327 237° Southwest 386 444 36,000  Level Aus ATC (RADAR)
03:36AM -25.4798 156.4732 237° Southwest 387 445 36,000  Level Aus ATC (RADAR)
03:36AM -25.5196 156.4049 237° Southwest 390 449 36,000 -120 Level Aus ATC (RADAR)
03:37AM -25.5546 156.3452 237° Southwest 391 450 35,900 -120 Descending Aus ATC (RADAR)
03:38AM -25.6085 156.2485 238° Southwest 353 406 35,900  Level Aus ATC (RADAR)
03:38AM -25.6304 156.2132 235° Southwest 337 388 35,900  Level Aus ATC (RADAR)
03:39AM -25.6595 156.1645 236° Southwest 322 371 35,900  Level Aus ATC (RADAR)
03:39AM -25.6901 156.1110 238° Southwest 307 353 35,900  Level Aus ATC (RADAR)
03:40AM -25.7180 156.0645 236° Southwest 306 352 35,900  Level Aus ATC (RADAR)
03:41AM -25.7528 156.0223 228° Southwest 314 361 35,900 60 Level Aus ATC (RADAR)
03:41AM -25.7940 155.9820 222° Southwest 319 367 36,000  Climbing FlightAware
03:41AM -25.7970 155.9786 222° Southwest 316 364 35,900  Descending Aus ATC (RADAR)
03:42AM -25.8270 155.9470 224° Southwest 318 366 36,000 60 Climbing FlightAware
03:42AM -25.8610 155.9090 225° Southwest 318 366 36,000 -120 Level FlightAware
03:43AM -25.9027 155.8646 225° Southwest 316 364 35,900  Descending Aus ATC (RADAR)
03:43AM -25.9050 155.8610 225° Southwest 318 366 36,000 120 Climbing FlightAware
03:44AM -25.9470 155.8150 225° Southwest 317 365 36,000  Level FlightAware
03:44AM -25.9860 155.7730 224° Southwest 318 366 36,000  Level FlightAware
03:45AM -26.0230 155.7330 224° Southwest 318 366 36,000  Level FlightAware
03:46AM -26.0680 155.6830 225° Southwest 316 364 36,000  Level FlightAware
03:46AM -26.0970 155.6510 225° Southwest 316 364 36,000 -120 Level FlightAware
03:47AM -26.1322 155.6130 225° Southwest 313 360 35,900  Descending Aus ATC (RADAR)
03:47AM -26.1360 155.6080 225° Southwest 315 362 36,000 120 Climbing FlightAware
03:47AM -26.1720 155.5690 224° Southwest 316 364 36,000  Level FlightAware
03:48AM -26.2080 155.5290 225° Southwest 317 365 36,000  Level FlightAware
03:48AM -26.2450 155.4890 224° Southwest 319 367 36,000  Level FlightAware
03:49AM -26.2850 155.4450 225° Southwest 319 367 36,000  Level FlightAware
03:50AM -26.3170 155.4080 226° Southwest 319 367 36,000  Level FlightAware
03:50AM -26.3550 155.3660 225° Southwest 317 365 36,000  Level FlightAware
03:51AM -26.3910 155.3270 224° Southwest 316 364 36,000  Level FlightAware
03:51AM -26.4280 155.2860 224° Southwest 316 364 36,000 -180 Level FlightAware
03:51AM -26.4291 155.2848 224° Southwest 314 361 35,900  Descending Aus ATC (RADAR)
03:52AM -26.4630 155.2480 224° Southwest 318 366 36,000 60 Climbing FlightAware
03:53AM -26.5010 155.2050 225° Southwest 319 367 36,000  Level FlightAware
03:53AM -26.5430 155.1590 224° Southwest 319 367 36,000  Level FlightAware
03:54AM -26.5720 155.1270 225° Southwest 322 371 36,000 -720 Level FlightAware
03:54AM -26.6080 155.0880 225° Southwest 322 371 35,300 -1,080 Descending Aus ATC (RADAR)
03:54AM -26.6110 155.0830 225° Southwest 321 369 35,400 -900 Climbing FlightAware
03:55AM -26.6493 155.0412 225° Southwest 317 365 34,700 -1,080 Descending Aus ATC (RADAR)
03:55AM -26.6530 155.0360 225° Southwest 314 361 34,700 -720 Level FlightAware
03:55AM -26.6750 155.0150 220° Southwest 326 375 34,400 -1,080 Descending FlightAware
03:56AM -26.7040 155.0010 203° Southwest 348 400 34,000 -1,140 Descending FlightAware
03:56AM -26.7600 154.9880 192° South 354 407 33,400 -1,080 Descending FlightAware
03:57AM -26.8160 154.9760 191° South 339 390 32,800 -960 Descending FlightAware
03:57AM -26.8760 154.9620 192° South 329 379 32,200 -960 Descending FlightAware
03:58AM -26.9280 154.9510 191° South 319 367 31,600 -1,080 Descending FlightAware
03:59AM -26.9770 154.9400 191° South 309 356 31,000 -1,080 Descending FlightAware
03:59AM -27.0270 154.9310 189° South 320 368 30,400 -960 Descending FlightAware
04:00AM -27.0740 154.9210 191° South 322 371 29,900 -1,020 Descending FlightAware
04:00AM -27.1210 154.9090 193° South 303 349 29,300 -1,080 Descending FlightAware
04:00AM -27.1310 154.9040 204° Southwest 295 339 29,200 -900 Descending FlightAware
04:01AM -27.1440 154.8930 217° Southwest 282 325 29,000 -1,080 Descending FlightAware
04:01AM -27.1760 154.8590 223° Southwest 275 316 28,400 -1,080 Descending FlightAware
04:02AM -27.2060 154.8250 225° Southwest 274 315 27,800 -1,140 Descending FlightAware
04:02AM -27.2353 154.7917 225° Southwest 273 314 27,200 -1,080 Descending Aus ATC (RADAR)
04:02AM -27.2380 154.7880 225° Southwest 270 311 27,200 -900 Level FlightAware
04:03AM -27.2700 154.7530 224° Southwest 266 306 26,600 -1,140 Descending FlightAware
04:03AM -27.2951 154.7227 224° Southwest 262 302 26,000 -960 Descending Aus ATC (RADAR)
04:04AM -27.3080 154.7080 224° Southwest 257 296 25,900 -840 Descending FlightAware
04:04AM -27.3310 154.6800 227° Southwest 250 288 25,400 -1,020 Descending FlightAware
04:05AM -27.3580 154.6450 229° Southwest 244 281 24,800 -960 Descending FlightAware
04:05AM -27.3860 154.6070 230° Southwest 247 284 24,200 -1,140 Descending FlightAware
04:06AM -27.3970 154.5830 243° Southwest 249 287 23,700 -1,440 Descending FlightAware
04:06AM -27.4060 154.5460 255° West 249 287 23,000 -1,140 Descending FlightAware
04:07AM -27.4160 154.5030 255° West 241 277 22,500 -1,080 Descending FlightAware
04:07AM -27.4170 154.4967 255° West 241 277 22,300 -480 Descending Aus ATC (RADAR)
04:08AM -27.4270 154.4570 255° West 242 278 22,200 -360 Descending FlightAware
04:08AM -27.4370 154.4110 256° West 243 280 21,900 -600 Descending FlightAware
04:09AM -27.4460 154.3750 254° West 243 280 21,600 -600 Descending FlightAware
04:09AM -27.4560 154.3320 255° West 243 280 21,300 -480 Descending FlightAware
04:10AM -27.4670 154.2840 256° West 242 278 21,000 -720 Descending FlightAware
04:10AM -27.4760 154.2460 255° West 243 280 20,500 -840 Descending FlightAware
04:11AM -27.4830 154.2180 254° West 241 277 20,100 -1,140 Descending FlightAware
04:11AM -27.4960 154.1630 255° West 239 275 19,200 -1,320 Descending FlightAware
04:12AM -27.5060 154.1200 255° West 237 273 18,600 -840 Descending FlightAware
04:13AM -27.5160 154.0720 257° West 233 268 18,200 -660 Descending FlightAware
04:13AM -27.5170 154.0540 266° West 249 287 18,000 -1,560 Descending FlightAware
04:13AM -27.5150 154.0280 275° West 260 299 17,300 -1,800 Descending FlightAware
04:14AM -27.5066 153.9806 275° West 267 307 16,400 -1,560 Descending Aus ATC (RADAR)
04:14AM -27.5050 153.9720 275° West 272 313 16,300 -1,560 Descending FlightAware
04:14AM -27.4987 153.9320 275° West 267 307 15,500 -1,560 Descending Aus ATC (RADAR)
04:15AM -27.4980 153.9260 275° West 266 306 15,400 -1,500 Descending FlightAware
04:15AM -27.4884 153.8711 275° West 262 302 14,400 -1,500 Descending Aus ATC (RADAR)
04:15AM -27.4890 153.8700 275° West 260 299 14,400 -1,620 Level FlightAware
04:16AM -27.4811 153.8245 275° West 257 296 13,500 -1,380 Descending Aus ATC (RADAR)
04:16AM -27.4810 153.8240 275° West 258 297 13,600 -840 Climbing FlightAware
04:16AM -27.4740 153.7990 288° West 261 300 13,200 -1,020 Descending FlightAware
04:17AM -27.4510 153.7500 298° West 269 310 12,600 -1,140 Descending FlightAware
04:17AM -27.4250 153.7010 301° West 267 307 11,700 -1,440 Descending FlightAware
04:18AM -27.4070 153.6660 300° West 265 305 11,000 -1,380 Descending FlightAware
04:19AM -27.3850 153.6250 301° West 254 292 10,200 -1,320 Descending FlightAware
04:19AM -27.3730 153.6020 300° West 259 298 9,800 -1,440 Descending FlightAware
04:19AM -27.3600 153.5780 301° West 265 305 9,300 -1,500 Descending FlightAware
04:20AM -27.3450 153.5490 300° West 264 304 8,700 -1,440 Descending FlightAware
04:20AM -27.3330 153.5260 300° West 260 299 8,200 -1,380 Descending FlightAware
04:20AM -27.3200 153.5020 301° West 258 297 7,800 -1,380 Descending FlightAware
04:21AM -27.3050 153.4730 300° West 255 293 7,200 -1,500 Descending FlightAware
04:21AM -27.2930 153.4510 302° West 251 289 6,700 -1,320 Descending FlightAware
04:21AM -27.2810 153.4280 300° West 248 285 6,300 -1,440 Descending FlightAware
04:22AM -27.2760 153.4180 299° West 246 283 6,000 -1,800 Descending FlightAware
04:22AM -27.2700 153.4050 297° West 245 282 5,700 -1,560 Descending FlightAware
04:22AM -27.2630 153.3820 289° West 246 283 5,200 -960 Descending FlightAware
04:22AM -27.2540 153.3560 291° West 236 272 5,000 -540 Descending FlightAware
04:23AM -27.2450 153.3300 291° West 225 259 4,800 -720 Descending FlightAware
04:23AM -27.2400 153.3140 289° West 216 249 4,600 -540 Descending FlightAware
04:23AM -27.2330 153.2940 291° West 202 232 4,500 -300 Descending FlightAware
04:24AM -27.2270 153.2750 290° West 185 213 4,400 -660 Descending FlightAware
04:24AM -27.2210 153.2580 292° West 177 204 4,100 -900 Descending FlightAware
04:24AM -27.2160 153.2410 288° West 172 198 3,800 -960 Descending FlightAware
04:25AM -27.2160 153.2360 270° West 171 197 3,700 -840 Descending FlightAware
04:25AM -27.2170 153.2300 259° West 171 197 3,600 -960 Descending FlightAware
04:25AM -27.2250 153.2210 225° Southwest 175 201 3,400 -1,200 Descending FlightAware
04:25AM -27.2380 153.2120 212° Southwest 182 209 3,000 -1,080 Descending FlightAware
04:26AM -27.2540 153.2030 207° Southwest 182 209 2,700 -840 Descending FlightAware
04:26AM -27.2640 153.1970 208° Southwest 179 206 2,500 -900 Descending FlightAware
04:26AM -27.2800 153.1890 204° Southwest 174 200 2,200 -1,080 Descending FlightAware
04:26AM -27.2860 153.1850 211° Southwest 172 198 2,000 -1,080 Descending FlightAware
04:27AM -27.3040 153.1750 206° Southwest 170 196 1,600 -960 Descending FlightAware
04:27AM -27.3170 153.1670 209° Southwest 162 186 1,300 -780 Descending FlightAware
04:27AM -27.3310 153.1590 207° Southwest 152 175 1,100 -780 Descending FlightAware
04:28AM -27.3430 153.1520 207° Southwest 142 163 800 -840 Descending FlightAware
04:28AM -27.3570 153.1440 207° Southwest 136 157 500 -840 Descending FlightAware
04:28AM -27.3670 153.1390 204° Southwest 136 157 200 -840 Descending FlightAware
04:29AM -27.3730 153.1350 211° Southwest 138 159 100 -600 Descending FlightAware